createdAt,value
2018-02-12T00:00:50.763Z,4.90
2018-02-12T00:05:45.062Z,4.90
2018-02-12T00:10:39.394Z,4.60
2018-02-12T00:15:33.644Z,4.33
2018-02-12T00:20:28.713Z,5.00
2018-02-12T00:25:23.013Z,5.10
2018-02-12T00:30:17.277Z,4.47
2018-02-12T00:35:12.315Z,4.67
2018-02-12T00:40:06.615Z,4.40
2018-02-12T00:45:00.878Z,4.50
2018-02-12T00:49:56.075Z,4.20
2018-02-12T00:54:50.374Z,3.80
2018-02-12T00:59:44.850Z,4.03
2018-02-12T01:04:39.273Z,4.70
2018-02-12T01:09:33.769Z,4.53
2018-02-12T01:14:28.029Z,5.43
2018-02-12T01:19:23.082Z,5.53
2018-02-12T01:24:17.355Z,6.33
2018-02-12T01:29:11.646Z,5.87
2018-02-12T01:34:06.799Z,7.40
2018-02-12T01:39:01.146Z,7.13
2018-02-12T01:43:55.606Z,6.87
2018-02-12T01:48:49.859Z,7.20
2018-02-12T01:53:44.916Z,7.30
2018-02-12T01:58:39.209Z,6.20
2018-02-12T02:03:33.457Z,6.93
2018-02-12T02:08:28.510Z,6.27
2018-02-12T02:13:23.570Z,6.67
2018-02-12T02:18:17.838Z,5.80
2018-02-12T02:23:12.151Z,7.03
2018-02-12T02:28:06.425Z,6.27
2018-02-12T02:33:01.468Z,7.07
2018-02-12T02:37:56.086Z,7.30
2018-02-12T02:42:50.354Z,6.97
2018-02-12T02:47:45.648Z,7.17
2018-02-12T02:52:40.942Z,7.27
2018-02-12T02:57:35.209Z,8.00
2018-02-12T03:02:29.489Z,8.20
2018-02-12T03:07:24.785Z,8.20
2018-02-12T03:12:19.054Z,8.60
2018-02-12T03:17:13.503Z,9.10
2018-02-12T03:22:09.866Z,9.00
2018-02-12T03:27:04.918Z,9.30
2018-02-12T03:31:59.261Z,9.33
2018-02-12T03:36:53.565Z,9.17
2018-02-12T03:41:47.841Z,9.33
2018-02-12T03:46:41.935Z,9.23
2018-02-12T03:51:36.214Z,9.07
2018-02-12T03:56:30.608Z,8.80
2018-02-12T04:01:24.879Z,9.50
2018-02-12T04:06:19.284Z,8.17
2018-02-12T04:20:36.818Z,8.30
2018-02-12T04:25:31.100Z,7.63
2018-02-12T04:30:26.181Z,7.73
2018-02-12T04:35:20.472Z,7.27
2018-02-12T04:40:14.752Z,6.60
2018-02-12T04:45:09.047Z,6.93
2018-02-12T04:50:03.526Z,6.40
2018-02-12T04:54:58.728Z,6.40
2018-02-12T04:59:53.018Z,5.80
2018-02-12T05:04:47.307Z,6.30
2018-02-12T05:09:41.794Z,6.07
2018-02-12T05:14:36.060Z,6.90
2018-02-12T05:19:31.110Z,5.60
2018-02-12T05:24:25.418Z,5.60
2018-02-12T05:29:19.684Z,6.00
2018-02-12T05:34:13.979Z,6.07
2018-02-12T05:39:09.035Z,6.43
2018-02-12T05:44:03.580Z,6.53
2018-02-12T05:48:57.856Z,5.87
2018-02-12T05:53:52.158Z,6.20
2018-02-12T05:58:46.423Z,5.33
2018-02-12T06:03:40.704Z,5.60
2018-02-12T06:08:35.744Z,5.87
2018-02-12T06:13:30.049Z,5.97
2018-02-12T06:18:24.498Z,6.80
2018-02-12T06:23:19.566Z,7.40
2018-02-12T06:28:13.874Z,6.70
2018-02-12T06:33:08.165Z,7.03
2018-02-12T06:38:02.465Z,8.27
2018-02-12T06:42:56.813Z,7.43
2018-02-12T06:47:51.099Z,7.50
2018-02-12T06:52:45.380Z,7.00
2018-02-12T06:57:39.689Z,7.90
2018-02-12T07:02:33.983Z,7.63
2018-02-12T07:07:28.367Z,7.87
2018-02-12T07:12:22.679Z,7.93
2018-02-12T07:17:17.102Z,7.40
2018-02-12T07:22:11.531Z,7.23
2018-02-12T07:27:06.628Z,7.10
2018-02-12T07:32:00.735Z,6.17
2018-02-12T07:36:55.408Z,6.20
2018-02-12T07:41:49.808Z,5.93
2018-02-12T07:46:44.112Z,5.67
2018-02-12T07:51:38.444Z,5.30
2018-02-12T07:56:32.762Z,5.93
2018-02-12T08:01:27.850Z,5.80
2018-02-12T08:06:22.179Z,5.87
2018-02-12T08:11:16.451Z,5.57
2018-02-12T08:16:10.757Z,5.60
2018-02-12T08:21:05.038Z,5.50
2018-02-12T08:25:59.410Z,4.80
2018-02-12T08:30:54.456Z,5.13
2018-02-12T08:35:48.917Z,4.90
2018-02-12T08:40:43.228Z,4.83
2018-02-12T08:45:38.281Z,5.03
2018-02-12T08:50:32.594Z,4.67
2018-02-12T08:55:26.840Z,4.17
2018-02-12T09:00:21.794Z,4.50
2018-02-12T09:05:16.408Z,4.47
2018-02-12T09:10:10.715Z,4.17
2018-02-12T09:15:05.140Z,4.07
2018-02-12T09:19:59.643Z,4.43
2018-02-12T09:24:53.921Z,3.87
2018-02-12T09:29:48.333Z,3.80
2018-02-12T09:34:42.694Z,3.70
2018-02-12T09:39:37.899Z,3.83
2018-02-12T09:44:32.961Z,3.40
2018-02-12T09:49:27.311Z,3.53
2018-02-12T09:54:21.691Z,3.40
2018-02-12T09:59:16.952Z,3.50
2018-02-12T10:04:12.011Z,3.70
2018-02-12T10:09:06.060Z,3.73
2018-02-12T10:14:01.120Z,3.20
2018-02-12T10:18:55.389Z,4.00
2018-02-12T10:23:50.468Z,3.40
2018-02-12T10:28:44.764Z,3.20
2018-02-12T10:33:39.125Z,3.40
2018-02-12T10:38:33.439Z,3.30
2018-02-12T10:43:27.764Z,3.13
2018-02-12T10:48:22.039Z,2.80
2018-02-12T10:53:16.337Z,2.90
2018-02-12T10:58:10.645Z,3.00
2018-02-12T11:03:05.091Z,3.37
2018-02-12T11:07:59.553Z,3.60
2018-02-12T11:12:53.928Z,3.57
2018-02-12T11:17:48.987Z,3.00
2018-02-12T11:22:43.423Z,3.40
2018-02-12T11:27:37.739Z,3.03
2018-02-12T11:32:32.810Z,2.80
2018-02-12T11:37:27.124Z,2.67
2018-02-12T11:42:21.484Z,3.10
2018-02-12T11:47:15.994Z,3.17
2018-02-12T11:52:10.446Z,3.10
2018-02-12T11:57:04.826Z,2.97
2018-02-12T12:01:59.114Z,2.73
2018-02-12T12:06:53.409Z,2.60
2018-02-12T12:11:47.697Z,2.63
2018-02-12T12:16:41.792Z,3.20
2018-02-12T12:21:36.068Z,3.20
2018-02-12T12:26:31.206Z,2.73
2018-02-12T12:31:26.257Z,2.63
2018-02-12T12:36:20.676Z,2.90
2018-02-12T12:41:14.950Z,3.27
2018-02-12T12:46:09.273Z,3.57
2018-02-12T12:51:03.696Z,2.77
2018-02-12T12:55:58.038Z,2.60
2018-02-12T13:00:53.083Z,2.80
2018-02-12T13:05:47.387Z,2.87
2018-02-12T13:10:41.693Z,2.40
2018-02-12T13:15:36.036Z,2.80
2018-02-12T13:20:30.422Z,2.77
2018-02-12T13:25:24.708Z,2.93
2018-02-12T13:30:18.993Z,2.83
2018-02-12T13:35:13.289Z,3.23
2018-02-12T13:40:07.629Z,2.60
2018-02-12T13:45:02.205Z,2.87
2018-02-12T13:49:56.506Z,3.20
2018-02-12T13:54:50.986Z,3.27
2018-02-12T13:59:45.323Z,3.10
2018-02-12T14:04:39.616Z,2.80
2018-02-12T14:09:33.998Z,3.20
2018-02-12T14:14:28.604Z,3.30
2018-02-12T14:19:22.898Z,3.60
2018-02-12T14:24:17.685Z,3.10
2018-02-12T14:29:12.999Z,2.73
2018-02-12T14:34:07.285Z,2.97
2018-02-12T14:39:01.752Z,3.33
2018-02-12T14:43:56.656Z,3.60
2018-02-12T14:48:51.841Z,2.77
2018-02-12T14:53:47.217Z,2.60
2018-02-12T14:58:41.656Z,2.40
2018-02-12T15:03:36.187Z,2.30
2018-02-12T15:08:31.288Z,2.77
2018-02-12T15:13:25.604Z,2.50
2018-02-12T15:18:20.661Z,2.77
2018-02-12T15:23:15.668Z,2.67
2018-02-12T15:28:10.095Z,3.03
2018-02-12T15:33:04.399Z,3.27
2018-02-12T15:37:58.695Z,3.50
2018-02-12T15:42:53.499Z,4.20
2018-02-12T15:47:48.160Z,4.17
2018-02-12T15:52:43.275Z,4.00
2018-02-12T15:57:38.754Z,4.07
2018-02-12T16:02:33.349Z,3.60
2018-02-12T16:07:28.076Z,3.80
2018-02-12T16:12:22.355Z,3.87
2018-02-12T16:17:16.672Z,3.27
2018-02-12T16:22:10.953Z,3.30
2018-02-12T16:27:05.588Z,3.83
2018-02-12T16:32:00.157Z,3.80
2018-02-12T16:36:55.466Z,3.50
2018-02-12T16:41:50.526Z,3.80
2018-02-12T16:46:44.813Z,4.03
2018-02-12T16:51:39.860Z,4.07
2018-02-12T16:56:34.130Z,4.13
2018-02-12T17:01:29.195Z,4.17
2018-02-12T17:06:23.703Z,5.73
2018-02-12T17:11:18.319Z,4.90
2018-02-12T17:16:12.597Z,4.77
2018-02-12T17:21:06.870Z,4.43
2018-02-12T17:26:01.146Z,4.80
2018-02-12T17:30:56.187Z,4.70
2018-02-12T17:35:50.742Z,5.50
2018-02-12T17:40:45.004Z,5.93
2018-02-12T17:45:39.318Z,6.10
2018-02-12T17:50:33.872Z,5.43
2018-02-12T17:55:28.916Z,4.87
2018-02-12T18:00:23.188Z,6.27
2018-02-12T18:05:18.324Z,7.53
2018-02-12T18:10:12.564Z,7.87
2018-02-12T18:15:06.850Z,6.83
2018-02-12T18:20:01.278Z,7.97
2018-02-12T18:24:55.674Z,7.17
2018-02-12T18:29:49.967Z,6.67
2018-02-12T18:34:44.869Z,7.30
2018-02-12T18:39:39.285Z,6.77
2018-02-12T18:44:33.680Z,5.60
2018-02-12T18:49:27.954Z,7.10
2018-02-12T18:54:23.000Z,6.40
2018-02-12T18:59:17.439Z,6.73
2018-02-12T19:04:11.726Z,6.50
2018-02-12T19:09:05.751Z,6.97
2018-02-12T19:14:00.797Z,6.57
2018-02-12T19:18:55.184Z,6.50
2018-02-12T19:23:50.241Z,5.67
2018-02-12T19:28:44.564Z,5.93
2018-02-12T19:33:38.840Z,5.77
2018-02-12T19:38:33.178Z,5.70
2018-02-12T19:43:27.450Z,6.30
2018-02-12T19:48:21.758Z,8.80
2018-02-12T19:53:16.031Z,6.03
2018-02-12T19:58:10.407Z,6.67
2018-02-12T20:03:05.491Z,5.97
2018-02-12T20:07:59.795Z,6.20
2018-02-12T20:12:54.372Z,5.97
2018-02-12T20:17:48.686Z,5.90
2018-02-12T20:22:43.037Z,6.80
2018-02-12T20:27:38.414Z,6.40
2018-02-12T20:32:33.101Z,6.50
2018-02-12T20:37:27.590Z,6.20
2018-02-12T20:42:21.888Z,5.57
2018-02-12T20:47:17.044Z,6.00
2018-02-12T20:52:11.401Z,6.77
2018-02-12T20:57:07.545Z,7.90
2018-02-12T21:02:02.249Z,8.27
2018-02-12T21:06:57.413Z,9.40
2018-02-12T21:11:51.800Z,8.20
2018-02-12T21:16:46.080Z,7.47
2018-02-12T21:21:41.216Z,7.37
2018-02-12T21:26:36.525Z,6.30
2018-02-12T21:31:31.222Z,6.03
2018-02-12T21:36:26.344Z,6.33
2018-02-12T21:41:21.404Z,6.13
2018-02-12T21:46:15.687Z,6.47
2018-02-12T21:51:10.059Z,6.73
2018-02-12T21:56:05.250Z,6.17
2018-02-12T22:00:59.626Z,5.33
2018-02-12T22:05:53.774Z,5.73
2018-02-12T22:10:48.035Z,5.20
2018-02-12T22:15:42.454Z,4.93
2018-02-12T22:20:36.714Z,5.13
2018-02-12T22:25:31.147Z,4.83
2018-02-12T22:30:25.454Z,4.43
2018-02-12T22:35:20.914Z,5.67
2018-02-12T22:40:16.782Z,4.60
2018-02-12T22:45:11.063Z,4.70
2018-02-12T22:50:05.412Z,4.60
2018-02-12T22:54:59.916Z,5.23
2018-02-12T22:59:54.226Z,5.00
2018-02-12T23:04:48.524Z,5.20
2018-02-12T23:09:42.812Z,4.30
2018-02-12T23:14:37.557Z,4.70
2018-02-12T23:19:32.844Z,4.40
2018-02-12T23:24:27.441Z,4.20
2018-02-12T23:29:21.768Z,4.40
2018-02-12T23:34:16.052Z,3.93
2018-02-12T23:39:10.357Z,4.23
2018-02-12T23:44:04.767Z,4.13
2018-02-12T23:48:59.078Z,4.50
2018-02-12T23:53:53.476Z,3.73
2018-02-12T23:58:47.766Z,4.43
